Time;durP1;ratioP1;P1;durP2;ratioP2;P2;SDS_P1;SDS_P2;PMS_P1;PMS_P2;Temp;Humidity;BMP_temperature;BMP_pressure;BME280_temperature;BME280_humidity;BME280_pressure;Samples;Min_cycle;Max_cycle;Signal;HPM_P1;HPM_P2
2023/05/31 00:00:41;;;;;;;11.10;4.90;;;;;;;11.78;62.26;99378.80;225563;1281;23426;-73
2023/05/31 00:05:47;;;;;;;9.10;5.00;;;;;;;11.65;62.62;99375.27;225406;1283;22524;-73
2023/05/31 00:11:04;;;;;;;8.00;4.60;;;;;;;11.51;62.94;99382.37;225603;1283;22543;-72
2023/05/31 00:16:07;;;;;;;10.70;4.90;;;;;;;11.35;63.40;99372.19;225410;1283;22531;-72
2023/05/31 00:21:41;;;;;;;12.70;6.60;;;;;;;11.25;63.45;99377.79;225435;1281;22569;-73
2023/05/31 00:27:32;;;;;;;14.60;7.80;;;;;;;11.18;63.71;99377.88;225483;1283;22552;-71
2023/05/31 00:32:56;;;;;;;11.90;5.30;;;;;;;11.13;64.17;99384.14;225415;1283;22650;-72
2023/05/31 00:38:05;;;;;;;9.40;4.80;;;;;;;11.05;64.73;99383.98;225325;1283;22539;-72
2023/05/31 00:43:12;;;;;;;9.40;5.20;;;;;;;10.95;64.78;99386.94;225389;1281;22541;-71
2023/05/31 00:48:19;;;;;;;10.00;5.40;;;;;;;10.84;65.35;99391.53;225511;1281;25402;-71
2023/05/31 00:53:30;;;;;;;10.60;5.50;;;;;;;10.74;65.47;99390.39;225578;1283;22565;-71
2023/05/31 00:58:44;;;;;;;10.40;5.60;;;;;;;10.65;65.47;99388.98;225387;1283;22575;-72
2023/05/31 01:03:52;;;;;;;11.10;5.60;;;;;;;10.58;65.56;99386.55;225539;1281;25310;-72
2023/05/31 01:09:05;;;;;;;11.10;5.80;;;;;;;10.51;65.59;99387.89;225559;1283;22543;-72
2023/05/31 01:14:26;;;;;;;;;;;;;;;10.44;66.12;99389.04;225561;1283;22617;-72
2023/05/31 01:20:11;;;;;;;10.30;5.40;;;;;;;10.35;66.25;99396.73;225547;1281;22550;-72
2023/05/31 01:25:27;;;;;;;13.30;6.60;;;;;;;10.26;66.90;99393.92;225522;1281;22543;-72
2023/05/31 01:30:40;;;;;;;11.60;5.80;;;;;;;10.16;66.84;99393.77;225535;1283;22536;-72
2023/05/31 01:35:53;;;;;;;14.20;6.80;;;;;;;10.06;67.15;99390.14;225439;1283;24401;-72
2023/05/31 01:41:12;;;;;;;14.60;6.20;;;;;;;9.97;67.70;99393.19;225472;1281;22561;-72
2023/05/31 01:46:47;;;;;;;12.20;5.90;;;;;;;9.90;67.88;99390.52;225494;1283;22566;-72
2023/05/31 01:52:05;;;;;;;11.20;6.40;;;;;;;9.83;68.04;99391.93;225417;1283;22543;-72
2023/05/31 01:57:17;;;;;;;13.50;6.20;;;;;;;9.78;68.50;99393.23;225473;1283;26211;-72
2023/05/31 02:02:36;;;;;;;12.00;5.50;;;;;;;9.72;68.60;99393.58;225486;1283;22540;-71
2023/05/31 02:07:47;;;;;;;11.30;6.00;;;;;;;9.63;68.85;99401.41;225467;1283;22557;-71
2023/05/31 02:12:59;;;;;;;14.70;6.70;;;;;;;9.53;68.90;99402.30;225384;1281;24373;-71
2023/05/31 02:18:08;;;;;;;13.50;7.00;;;;;;;9.45;69.10;99400.27;225513;1283;22556;-72
2023/05/31 02:23:11;;;;;;;13.30;6.80;;;;;;;9.43;69.37;99400.55;225474;1266;22655;-72
2023/05/31 02:28:22;;;;;;;13.20;7.00;;;;;;;9.42;69.24;99395.84;225432;1283;22554;-71
2023/05/31 02:34:10;;;;;;;;;;;;;;;;;;;;;
2023/05/31 02:39:19;;;;;;;10.20;6.70;;;;;;;9.37;69.72;99395.56;225449;1280;22560;-71
2023/05/31 02:44:24;;;;;;;12.80;7.50;;;;;;;9.32;69.57;99391.50;225460;1281;22539;-72
2023/05/31 02:49:32;;;;;;;11.90;6.40;;;;;;;9.30;69.75;99395.81;225455;1281;22547;-71
2023/05/31 02:54:35;;;;;;;12.10;6.70;;;;;;;9.30;69.82;99400.92;225352;1283;22941;-71
2023/05/31 02:59:48;;;;;;;12.30;6.70;;;;;;;9.34;69.52;99397.52;225438;1279;22533;-72
2023/05/31 03:04:54;;;;;;;12.20;5.70;;;;;;;9.37;69.82;99399.02;225525;1281;22529;-71
2023/05/31 03:09:57;;;;;;;13.10;6.20;;;;;;;9.41;69.59;99404.95;225392;1283;22539;-72
2023/05/31 03:15:04;;;;;;;13.60;6.10;;;;;;;9.46;70.13;99410.95;225362;1283;22567;-73
2023/05/31 03:20:10;;;;;;;12.00;6.70;;;;;;;9.64;70.18;99422.90;225427;1283;25217;-72
2023/05/31 03:25:16;;;;;;;14.60;6.70;;;;;;;10.11;69.71;99425.08;225369;1283;22591;-72
2023/05/31 03:30:34;;;;;;;11.20;5.90;;;;;;;10.65;69.11;99425.89;225493;1281;22582;-71
2023/05/31 03:35:57;;;;;;;9.50;5.60;;;;;;;11.18;68.28;99423.04;225497;1283;22554;-71
2023/05/31 03:41:15;;;;;;;10.90;6.20;;;;;;;11.73;67.87;99421.09;225475;1283;22582;-71
2023/05/31 03:46:42;;;;;;;15.70;8.80;;;;;;;12.31;67.16;99424.79;225484;1279;22593;-70
2023/05/31 03:51:53;;;;;;;12.70;6.80;;;;;;;12.79;66.35;99422.25;225482;1283;22566;-72
2023/05/31 03:57:05;;;;;;;13.90;6.90;;;;;;;13.08;65.49;99422.95;225402;1283;24203;-71
2023/05/31 04:02:11;;;;;;;10.60;6.00;;;;;;;13.17;65.19;99427.04;225466;1261;22556;-73
2023/05/31 04:07:16;;;;;;;12.40;6.60;;;;;;;13.26;65.18;99420.79;225248;1276;22570;-72
2023/05/31 04:12:27;;;;;;;11.10;6.20;;;;;;;13.34;65.10;99417.32;225467;1279;22544;-72
2023/05/31 04:17:35;;;;;;;11.50;6.60;;;;;;;13.38;65.09;99416.21;225477;1281;22636;-72
2023/05/31 04:22:43;;;;;;;13.30;6.90;;;;;;;13.36;64.77;99409.45;225452;1281;23459;-74
2023/05/31 04:27:56;;;;;;;13.00;7.20;;;;;;;13.30;64.63;99407.13;225527;1283;22566;-72
2023/05/31 04:32:58;;;;;;;11.90;6.40;;;;;;;13.29;64.78;99408.38;225386;1282;23837;-72
2023/05/31 04:38:16;;;;;;;9.30;6.10;;;;;;;13.25;64.69;99405.80;225400;1283;23690;-72
2023/05/31 04:43:31;;;;;;;14.00;6.60;;;;;;;13.20;64.82;99406.28;225473;1283;22556;-72
2023/05/31 04:48:46;;;;;;;;;;;;;;;13.19;65.07;99407.14;225453;1283;22517;-73
2023/05/31 04:53:49;;;;;;;11.20;5.90;;;;;;;13.21;65.30;99414.66;225473;1283;24244;-73
2023/05/31 04:58:59;;;;;;;13.10;6.10;;;;;;;13.24;65.46;99415.87;225420;1277;22551;-72
2023/05/31 05:04:16;;;;;;;11.60;5.60;;;;;;;13.31;65.57;99419.22;225425;1280;22704;-72
2023/05/31 05:09:24;;;;;;;9.00;5.50;;;;;;;13.42;65.84;99419.30;225380;1283;22532;-71
2023/05/31 05:14:36;;;;;;;11.00;5.80;;;;;;;13.51;65.83;99423.72;225358;1283;22594;-72
2023/05/31 05:19:46;;;;;;;11.10;6.30;;;;;;;13.61;66.00;99431.32;225356;1276;22548;-73
2023/05/31 05:24:57;;;;;;;10.80;6.30;;;;;;;13.74;66.09;99432.86;225459;1283;22592;-72
2023/05/31 05:30:08;;;;;;;10.30;6.30;;;;;;;13.89;66.16;99439.16;225386;1283;22552;-73
2023/05/31 05:35:14;;;;;;;10.80;6.40;;;;;;;14.02;66.12;99443.81;225533;1280;22550;-72
2023/05/31 05:40:19;;;;;;;10.80;7.10;;;;;;;14.14;65.87;99442.02;225315;1280;25245;-73
2023/05/31 05:45:22;;;;;;;8.50;5.70;;;;;;;14.29;65.62;99443.05;225151;1277;22551;-72
2023/05/31 05:50:28;;;;;;;11.90;5.90;;;;;;;14.43;65.10;99445.13;225231;1278;25239;-72
2023/05/31 05:55:35;;;;;;;9.50;5.40;;;;;;;14.57;64.69;99447.58;225100;1283;22551;-72
2023/05/31 06:00:40;;;;;;;12.10;5.20;;;;;;;14.70;63.95;99450.98;225060;1280;22557;-72
2023/05/31 06:05:49;;;;;;;18.30;6.50;;;;;;;14.83;63.78;99449.98;225000;1269;25404;-72
2023/05/31 06:10:56;;;;;;;19.90;5.50;;;;;;;14.98;63.61;99452.38;224634;1269;137976;-72
2023/05/31 06:15:58;;;;;;;12.40;6.10;;;;;;;15.14;63.63;99447.02;224660;1263;138035;-73
2023/05/31 06:21:01;;;;;;;8.30;4.70;;;;;;;15.29;63.19;99448.61;224559;1271;137864;-71
2023/05/31 06:26:10;;;;;;;12.60;4.90;;;;;;;15.44;62.82;99449.58;224563;1270;137768;-74
2023/05/31 06:31:16;;;;;;;9.50;5.10;;;;;;;15.62;62.23;99451.60;224660;1276;22545;-73
2023/05/31 06:36:23;;;;;;;11.10;4.70;;;;;;;15.78;61.74;99450.45;224556;1266;137641;-71
2023/05/31 06:41:32;;;;;;;6.00;4.10;;;;;;;15.95;61.47;99448.36;224650;1260;137789;-74
2023/05/31 06:46:40;;;;;;;8.50;4.50;;;;;;;16.14;61.43;99447.84;224917;1260;137794;-75
2023/05/31 06:52:06;;;;;;;11.40;4.30;;;;;;;16.37;61.07;99448.88;224763;1265;137714;-70
2023/05/31 06:57:40;;;;;;;6.70;3.90;;;;;;;16.65;60.75;99442.91;224705;1259;137961;-74
2023/05/31 07:02:42;;;;;;;5.70;3.40;;;;;;;16.85;60.19;99441.44;224799;1276;138086;-72
2023/05/31 07:07:44;;;;;;;7.00;3.60;;;;;;;17.09;59.99;99443.34;224721;1260;25288;-72
2023/05/31 07:12:47;;;;;;;7.50;3.50;;;;;;;17.31;59.25;99444.27;224847;1281;137529;-72
2023/05/31 07:17:49;;;;;;;7.40;3.50;;;;;;;17.55;58.84;99450.00;224702;1264;137811;-74
2023/05/31 07:22:52;;;;;;;5.40;3.30;;;;;;;17.73;58.21;99447.50;224804;1280;137747;-70
2023/05/31 07:27:54;;;;;;;7.70;2.90;;;;;;;17.89;57.59;99440.29;224250;1268;137753;-74
2023/05/31 07:32:56;;;;;;;7.20;3.10;;;;;;;18.09;56.99;99435.30;224430;1276;137732;-72
2023/05/31 07:37:58;;;;;;;8.70;4.00;;;;;;;18.31;56.44;99431.25;224756;1263;25362;-72
2023/05/31 07:43:01;;;;;;;7.40;2.70;;;;;;;18.54;55.99;99424.63;224653;1270;137404;-70
2023/05/31 07:48:04;;;;;;;6.50;3.20;;;;;;;18.76;55.60;99421.84;224743;1263;137548;-69
2023/05/31 07:53:17;;;;;;;6.00;2.60;;;;;;;18.99;55.17;99418.98;224783;1279;137835;-71
2023/05/31 07:58:20;;;;;;;8.40;3.00;;;;;;;19.22;55.05;99419.23;224727;1277;137720;-71
2023/05/31 08:03:22;;;;;;;9.40;3.10;;;;;;;19.47;54.49;99422.88;224695;1281;137723;-69
2023/05/31 08:08:25;;;;;;;8.90;3.00;;;;;;;19.65;53.41;99421.81;224658;1280;138006;-70
2023/05/31 08:13:29;;;;;;;17.20;4.50;;;;;;;19.76;52.41;99413.27;224763;1268;23625;-69
2023/05/31 08:18:33;;;;;;;160.30;17.50;;;;;;;19.92;52.32;99412.67;225150;1271;137548;-70
2023/05/31 08:23:35;;;;;;;5.60;2.90;;;;;;;20.18;52.23;99407.70;224776;1281;138077;-70
2023/05/31 08:28:37;;;;;;;6.20;3.00;;;;;;;20.45;51.94;99404.02;224967;1277;137843;-71
2023/05/31 08:33:53;;;;;;;6.70;2.60;;;;;;;20.72;51.48;99405.27;225027;1268;137708;-71
2023/05/31 08:38:55;;;;;;;5.20;2.60;;;;;;;20.89;49.66;99408.02;224946;1276;137961;-73
2023/05/31 08:44:01;;;;;;;7.00;2.50;;;;;;;21.00;48.75;99411.65;225031;1279;23079;-69
2023/05/31 08:49:10;;;;;;;7.90;2.70;;;;;;;21.05;47.83;99414.52;224921;1268;137970;-70
2023/05/31 08:54:14;;;;;;;4.20;2.60;;;;;;;21.14;47.86;99409.23;224871;1268;138257;-71
2023/05/31 08:59:18;;;;;;;6.30;2.70;;;;;;;21.21;47.15;99409.39;224773;1267;137745;-73
2023/05/31 09:04:21;;;;;;;5.00;2.80;;;;;;;21.34;47.79;99410.28;224590;1268;137752;-70
2023/05/31 09:09:23;;;;;;;4.90;2.70;;;;;;;21.60;47.86;99405.71;224773;1278;137740;-69
2023/05/31 09:14:27;;;;;;;4.00;2.60;;;;;;;21.82;47.99;99407.19;224788;1276;137886;-71
2023/05/31 09:19:30;;;;;;;14.90;3.70;;;;;;;21.94;47.71;99405.98;224929;1283;22597;-70
2023/05/31 09:24:32;;;;;;;8.50;2.70;;;;;;;22.02;47.79;99401.69;224838;1280;137701;-69
2023/05/31 09:29:36;;;;;;;5.80;2.70;;;;;;;22.12;47.13;99400.61;224864;1262;137633;-70
2023/05/31 09:34:38;;;;;;;3.70;2.60;;;;;;;22.17;46.63;99403.64;224862;1276;137812;-71
2023/05/31 09:39:54;;;;;;;9.20;2.90;;;;;;;22.14;46.00;99395.58;224856;1279;137735;-70
2023/05/31 09:44:59;;;;;;;9.00;3.60;;;;;;;22.13;46.35;99388.79;224871;1280;138271;-70
2023/05/31 09:50:01;;;;;;;6.80;3.50;;;;;;;22.21;46.63;99389.55;224911;1276;22579;-71
2023/05/31 09:55:06;;;;;;;16.10;3.60;;;;;;;22.42;46.45;99384.05;225042;1275;22577;-70
2023/05/31 10:00:19;;;;;;;6.30;2.40;;;;;;;22.50;45.87;99378.88;224979;1273;137598;-71
2023/05/31 10:05:21;;;;;;;21.20;4.20;;;;;;;22.55;45.13;99374.63;224915;1278;137931;-69
2023/05/31 10:10:24;;;;;;;3.70;2.20;;;;;;;22.55;44.52;99369.19;224678;1276;138057;-70
2023/05/31 10:15:27;;;;;;;6.10;2.70;;;;;;;22.60;44.67;99361.26;225003;1281;137994;-71
2023/05/31 10:20:51;;;;;;;5.10;3.00;;;;;;;22.65;44.50;99354.83;224908;1271;137852;-71
2023/05/31 10:26:20;;;;;;;4.80;2.60;;;;;;;22.77;44.51;99351.89;225056;1282;22537;-72
2023/05/31 10:31:26;;;;;;;5.50;2.50;;;;;;;22.80;44.09;99348.59;225044;1283;24476;-71
2023/05/31 10:36:28;;;;;;;4.80;2.60;;;;;;;22.84;44.62;99344.27;224843;1280;137498;-71
2023/05/31 10:41:41;;;;;;;5.00;2.30;;;;;;;23.04;44.92;99343.23;222919;1265;2721586;-71
2023/05/31 10:46:50;;;;;;;5.50;2.50;;;;;;;23.18;44.52;99340.23;225016;1283;138626;-71
2023/05/31 10:52:04;;;;;;;3.80;2.70;;;;;;;23.37;44.14;99339.53;224924;1276;137738;-74
2023/05/31 10:57:07;;;;;;;7.50;3.10;;;;;;;23.59;44.20;99336.75;224880;1276;137789;-72
2023/05/31 11:02:11;;;;;;;4.90;2.50;;;;;;;23.77;43.76;99331.47;224982;1271;137942;-72
2023/05/31 11:07:25;;;;;;;5.20;2.70;;;;;;;23.83;43.27;99334.44;224984;1277;22771;-72
2023/05/31 11:12:34;;;;;;;4.10;2.60;;;;;;;23.91;43.20;99325.62;224927;1278;137556;-72
2023/05/31 11:17:54;;;;;;;5.00;2.30;;;;;;;24.01;43.28;99316.29;224983;1261;137861;-72
2023/05/31 11:23:27;;;;;;;5.60;2.60;;;;;;;24.30;43.66;99306.45;224757;1278;137767;-73
2023/05/31 11:28:31;;;;;;;5.80;2.60;;;;;;;24.43;42.51;99298.67;224749;1273;137718;-73
2023/05/31 11:33:44;;;;;;;4.20;2.80;;;;;;;24.35;42.37;99290.70;224764;1280;137861;-73
2023/05/31 11:39:00;;;;;;;3.90;2.30;;;;;;;24.37;42.52;99288.70;224870;1283;137817;-74
2023/05/31 11:44:10;;;;;;;8.20;2.30;;;;;;;24.34;42.19;99286.31;224978;1279;25242;-73
2023/05/31 11:49:19;;;;;;;2.90;2.20;;;;;;;24.20;42.44;99279.45;224852;1281;22554;-73
2023/05/31 11:54:29;;;;;;;4.70;2.60;;;;;;;24.13;42.41;99278.55;224717;1277;138120;-72
2023/05/31 11:59:34;;;;;;;;;;;;;;;24.15;42.20;99277.27;224643;1269;138723;-71
2023/05/31 12:04:39;;;;;;;4.50;2.50;;;;;;;24.12;41.91;99273.67;224923;1280;124395;-73
2023/05/31 12:09:42;;;;;;;3.50;2.40;;;;;;;24.08;41.93;99273.38;224943;1277;137790;-72
2023/05/31 12:14:54;;;;;;;3.70;2.30;;;;;;;24.01;41.85;99271.20;224775;1281;137851;-73
2023/05/31 12:20:09;;;;;;;4.90;2.30;;;;;;;23.97;42.01;99264.15;224978;1278;22553;-73
2023/05/31 12:25:26;;;;;;;6.50;2.10;;;;;;;23.93;41.95;99262.58;224891;1277;22583;-72
2023/05/31 12:30:28;;;;;;;8.50;3.00;;;;;;;23.92;41.97;99253.06;224782;1280;137520;-72
2023/05/31 12:35:48;;;;;;;2.70;2.20;;;;;;;23.98;42.27;99252.77;224885;1280;137609;-72
2023/05/31 12:40:53;;;;;;;2.80;1.80;;;;;;;23.97;41.78;99252.66;224872;1277;137832;-71
2023/05/31 12:45:55;;;;;;;3.10;1.90;;;;;;;23.92;41.72;99248.41;225210;1281;137892;-71
2023/05/31 12:50:57;;;;;;;2.50;2.30;;;;;;;23.99;41.96;99244.36;224960;1278;138056;-72
2023/05/31 12:56:02;;;;;;;3.20;1.90;;;;;;;24.04;41.83;99238.92;225102;1281;23006;-71
2023/05/31 13:01:09;;;;;;;1.90;1.70;;;;;;;24.03;41.77;99234.39;224912;1260;137259;-73
2023/05/31 13:06:12;;;;;;;3.50;1.70;;;;;;;24.04;41.82;99235.67;224876;1264;137579;-72
2023/05/31 13:11:21;;;;;;;4.50;1.90;;;;;;;24.09;41.87;99229.33;224913;1275;137769;-72
2023/05/31 13:16:24;;;;;;;2.50;1.80;;;;;;;24.13;41.43;99230.96;224936;1281;138014;-72
2023/05/31 13:21:28;;;;;;;3.20;1.90;;;;;;;24.10;41.09;99224.36;224939;1281;137750;-72
2023/05/31 13:26:31;;;;;;;4.00;1.90;;;;;;;24.09;41.07;99220.52;224905;1274;138229;-71
2023/05/31 13:31:33;;;;;;;4.90;2.10;;;;;;;24.12;41.16;99214.48;225051;1275;22564;-71
2023/05/31 13:36:38;;;;;;;2.20;2.00;;;;;;;24.15;40.95;99218.40;224867;1276;137465;-70
2023/05/31 13:41:44;;;;;;;2.50;1.70;;;;;;;24.13;40.73;99208.50;224950;1265;137625;-74
2023/05/31 13:46:56;;;;;;;;;;;;;;;;;;;;;
2023/05/31 13:51:59;;;;;;;5.70;2.40;;;;;;;24.14;39.96;99197.17;224842;1275;137721;-73
2023/05/31 13:57:03;;;;;;;4.00;1.90;;;;;;;24.20;39.88;99190.58;225081;1277;23495;-71
2023/05/31 14:02:05;;;;;;;5.80;1.80;;;;;;;24.24;39.70;99177.98;225097;1278;22755;-70
2023/05/31 14:07:08;;;;;;;2.70;1.80;;;;;;;24.27;39.78;99179.34;225048;1283;24904;-70
2023/05/31 14:12:11;;;;;;;2.30;1.90;;;;;;;24.31;39.59;99172.65;225176;1276;25489;-70
2023/05/31 14:17:14;;;;;;;7.20;2.20;;;;;;;24.33;39.05;99169.11;225308;1283;22748;-70
2023/05/31 14:22:19;;;;;;;2.90;1.90;;;;;;;24.36;38.84;99167.56;225317;1283;22561;-70
2023/05/31 14:27:21;;;;;;;2.40;2.20;;;;;;;24.39;38.77;99158.77;225334;1281;22554;-71
2023/05/31 14:32:23;;;;;;;2.80;2.20;;;;;;;24.38;37.62;99167.36;225458;1280;22589;-70
2023/05/31 14:37:27;;;;;;;3.60;2.00;;;;;;;24.32;37.33;99161.80;225433;1277;22615;-70
2023/05/31 14:42:45;;;;;;;3.00;2.20;;;;;;;24.42;37.48;99157.55;225387;1281;22580;-71
2023/05/31 14:47:47;;;;;;;3.00;1.80;;;;;;;24.51;37.46;99155.11;225460;1279;22557;-70
2023/05/31 14:52:50;;;;;;;2.30;2.10;;;;;;;24.58;37.53;99149.50;225484;1281;23142;-71
2023/05/31 14:57:52;;;;;;;2.50;2.30;;;;;;;24.59;37.85;99146.74;225437;1280;25402;-71
2023/05/31 15:02:54;;;;;;;2.60;2.00;;;;;;;24.67;38.00;99141.16;225293;1283;22574;-68
2023/05/31 15:07:56;;;;;;;1.70;1.60;;;;;;;24.67;37.59;99136.84;225390;1273;22551;-69
2023/05/31 15:13:02;;;;;;;2.30;2.10;;;;;;;24.65;37.62;99131.11;225381;1278;22546;-70
2023/05/31 15:18:05;;;;;;;4.00;2.30;;;;;;;24.71;37.89;99124.95;225380;1281;24189;-71
2023/05/31 15:23:08;;;;;;;4.90;2.30;;;;;;;24.75;38.12;99116.80;225376;1283;22521;-69
2023/05/31 15:28:16;;;;;;;3.40;2.10;;;;;;;24.79;38.23;99110.89;225316;1281;22542;-70
2023/05/31 15:33:18;;;;;;;5.10;3.60;;;;;;;24.84;38.31;99104.81;225330;1281;22590;-68
2023/05/31 15:38:20;;;;;;;6.40;2.80;;;;;;;24.88;38.77;99103.25;225332;1278;22630;-72
2023/05/31 15:43:24;;;;;;;3.10;2.50;;;;;;;24.88;38.86;99104.06;225479;1280;22557;-69
2023/05/31 15:48:26;;;;;;;2.40;2.20;;;;;;;24.89;38.99;99104.13;225404;1281;22568;-70
2023/05/31 15:53:28;;;;;;;4.90;2.10;;;;;;;24.86;38.76;99098.44;225394;1283;22557;-70
2023/05/31 15:58:31;;;;;;;4.50;2.60;;;;;;;24.80;39.24;99092.12;225368;1281;22561;-71
2023/05/31 16:03:33;;;;;;;3.30;2.10;;;;;;;24.79;39.19;99086.11;225433;1283;24205;-68
2023/05/31 16:08:36;;;;;;;2.40;2.20;;;;;;;24.81;39.24;99084.92;225403;1281;22553;-69
2023/05/31 16:13:38;;;;;;;2.30;2.10;;;;;;;24.84;39.00;99083.67;225363;1283;22547;-69
2023/05/31 16:18:40;;;;;;;2.90;2.10;;;;;;;24.91;39.07;99079.09;225508;1279;22531;-69
2023/05/31 16:23:44;;;;;;;3.20;2.20;;;;;;;24.96;39.08;99073.95;225330;1281;22562;-70
2023/05/31 16:28:49;;;;;;;4.50;2.10;;;;;;;24.95;39.29;99065.89;225367;1281;22551;-70
2023/05/31 16:33:51;;;;;;;2.50;2.30;;;;;;;24.81;39.34;99062.88;225489;1279;22546;-70
2023/05/31 16:38:53;;;;;;;2.80;1.80;;;;;;;24.65;39.58;99057.71;225444;1280;23790;-70
2023/05/31 16:43:55;;;;;;;2.40;2.00;;;;;;;24.61;39.81;99057.94;225428;1281;22545;-69
2023/05/31 16:48:58;;;;;;;3.60;1.90;;;;;;;24.45;40.12;99062.40;225480;1281;24232;-70
2023/05/31 16:54:00;;;;;;;5.00;2.40;;;;;;;24.34;40.31;99060.35;225512;1281;22534;-70
2023/05/31 16:59:02;;;;;;;3.40;2.00;;;;;;;24.27;40.96;99058.51;225442;1277;25544;-69
2023/05/31 17:04:05;;;;;;;3.90;2.10;;;;;;;24.10;41.14;99056.15;225415;1278;25522;-71
2023/05/31 17:09:08;;;;;;;3.30;2.10;;;;;;;24.00;41.12;99053.67;225509;1283;24225;-69
2023/05/31 17:14:12;;;;;;;3.10;2.10;;;;;;;24.30;41.61;99054.77;225386;1281;24201;-70
2023/05/31 17:19:14;;;;;;;4.80;2.50;;;;;;;25.02;41.75;99052.09;225371;1278;22542;-69
2023/05/31 17:24:16;;;;;;;4.00;2.10;;;;;;;25.12;41.30;99052.39;225414;1283;25880;-70
2023/05/31 17:29:18;;;;;;;10.70;6.20;;;;;;;25.30;41.56;99050.20;225498;1283;22545;-70
2023/05/31 17:34:20;;;;;;;4.70;2.70;;;;;;;26.39;41.86;99047.33;225368;1283;22545;-70
2023/05/31 17:39:22;;;;;;;3.40;2.50;;;;;;;27.00;40.51;99039.27;225316;1278;22544;-70
2023/05/31 17:44:24;;;;;;;2.90;2.40;;;;;;;26.76;40.06;99039.15;225342;1281;22543;-70
2023/05/31 17:49:26;;;;;;;2.70;2.50;;;;;;;26.04;40.07;99037.38;225376;1281;22620;-70
2023/05/31 17:54:29;;;;;;;2.50;2.30;;;;;;;25.28;40.62;99033.97;225461;1280;22584;-69
2023/05/31 17:59:31;;;;;;;5.70;2.40;;;;;;;24.57;41.28;99032.05;225474;1280;24916;-69
2023/05/31 18:04:33;;;;;;;3.10;2.40;;;;;;;24.01;41.83;99034.65;225485;1281;22546;-68
2023/05/31 18:09:35;;;;;;;2.70;2.30;;;;;;;23.47;42.46;99032.28;225390;1283;22560;-70
2023/05/31 18:14:37;;;;;;;3.20;2.20;;;;;;;22.99;42.89;99034.61;225489;1281;22818;-71
2023/05/31 18:19:40;;;;;;;3.10;2.30;;;;;;;22.54;43.27;99032.29;225401;1283;24229;-69
2023/05/31 18:24:42;;;;;;;5.50;2.10;;;;;;;22.13;43.95;99035.69;225419;1281;22551;-70
2023/05/31 18:29:45;;;;;;;5.70;2.20;;;;;;;21.75;44.13;99036.06;225348;1277;22530;-70
2023/05/31 18:34:48;;;;;;;4.20;2.70;;;;;;;21.39;44.36;99032.89;225366;1283;22552;-69
2023/05/31 18:39:50;;;;;;;3.30;2.40;;;;;;;21.05;44.20;99027.25;225365;1283;22561;-68
2023/05/31 18:44:53;;;;;;;4.30;2.70;;;;;;;20.75;44.20;99028.45;225432;1283;22660;-70
2023/05/31 18:49:55;;;;;;;5.00;2.40;;;;;;;20.47;44.38;99031.23;225501;1264;22558;-69
2023/05/31 18:54:57;;;;;;;3.80;2.40;;;;;;;20.20;44.63;99030.88;225401;1281;24220;-69
2023/05/31 18:59:59;;;;;;;5.10;2.60;;;;;;;19.95;45.03;99032.30;225361;1283;22546;-69
2023/05/31 19:05:01;;;;;;;4.20;2.60;;;;;;;19.72;45.38;99028.52;225294;1281;24099;-70
2023/05/31 19:10:03;;;;;;;4.70;2.40;;;;;;;19.49;45.69;99032.95;225402;1281;22555;-69
2023/05/31 19:15:11;;;;;;;4.50;2.50;;;;;;;19.30;46.01;99034.13;225391;1283;25413;-71
2023/05/31 19:20:15;;;;;;;4.60;2.60;;;;;;;19.13;46.41;99033.83;225371;1282;22540;-68
2023/05/31 19:25:20;;;;;;;6.40;2.70;;;;;;;18.99;46.69;99036.66;225389;1281;22566;-69
2023/05/31 19:30:28;;;;;;;8.70;2.70;;;;;;;18.85;47.06;99038.86;225419;1263;22550;-70
2023/05/31 19:35:30;;;;;;;4.50;2.80;;;;;;;18.70;47.27;99038.01;225508;1283;22597;-69
2023/05/31 19:40:32;;;;;;;6.20;2.60;;;;;;;18.56;47.78;99039.45;225378;1278;22563;-68
2023/05/31 19:45:35;;;;;;;3.20;2.90;;;;;;;18.47;48.25;99036.88;225417;1281;22537;-69
2023/05/31 19:50:37;;;;;;;6.80;3.90;;;;;;;18.35;48.59;99035.41;225362;1281;25322;-69
2023/05/31 19:55:42;;;;;;;6.40;4.20;;;;;;;18.16;48.94;99036.14;225354;1270;23642;-69
2023/05/31 20:00:44;;;;;;;9.10;4.50;;;;;;;18.00;49.17;99045.73;225335;1283;22543;-69
2023/05/31 20:05:46;;;;;;;6.20;4.10;;;;;;;17.84;49.35;99046.09;225447;1283;22562;-69
2023/05/31 20:10:50;;;;;;;9.40;4.00;;;;;;;17.70;49.66;99044.73;225428;1262;22539;-70
2023/05/31 20:15:52;;;;;;;5.10;3.50;;;;;;;17.55;49.85;99035.61;225413;1283;24281;-68
2023/05/31 20:20:54;;;;;;;6.70;4.30;;;;;;;17.44;50.24;99038.48;225512;1283;26230;-71
2023/05/31 20:25:59;;;;;;;8.80;3.20;;;;;;;17.35;50.17;99033.68;225531;1281;22542;-68
2023/05/31 20:31:02;;;;;;;5.60;3.50;;;;;;;17.28;50.85;99031.58;225400;1283;22546;-69
2023/05/31 20:36:15;;;;;;;9.70;4.00;;;;;;;17.09;52.10;99027.79;225422;1283;22545;-69
2023/05/31 20:41:18;;;;;;;5.40;3.20;;;;;;;16.87;52.36;99020.98;225388;1283;25272;-69
2023/05/31 20:46:20;;;;;;;7.50;3.20;;;;;;;16.67;52.81;99018.20;225495;1283;22544;-70
2023/05/31 20:51:22;;;;;;;6.60;3.10;;;;;;;16.46;53.26;99018.30;225429;1281;22555;-68
2023/05/31 20:56:26;;;;;;;6.10;3.00;;;;;;;16.26;53.61;99017.57;225483;1279;22550;-69
2023/05/31 21:01:28;;;;;;;6.90;3.40;;;;;;;16.05;54.65;99017.42;225446;1281;25325;-70
2023/05/31 21:06:32;;;;;;;8.20;3.10;;;;;;;15.85;55.55;99022.29;225502;1281;22553;-68
2023/05/31 21:11:35;;;;;;;8.00;3.50;;;;;;;15.64;56.68;99023.67;225555;1283;22545;-70
2023/05/31 21:16:37;;;;;;;7.60;3.80;;;;;;;15.42;57.19;99028.17;225506;1283;23269;-69
2023/05/31 21:21:40;;;;;;;4.80;3.60;;;;;;;15.25;57.38;99029.75;225482;1281;23011;-69
2023/05/31 21:26:42;;;;;;;5.70;3.70;;;;;;;15.10;57.76;99030.26;225472;1279;22544;-69
2023/05/31 21:31:48;;;;;;;8.80;4.60;;;;;;;14.94;58.22;99034.36;225347;1283;22537;-68
2023/05/31 21:37:04;;;;;;;11.20;5.00;;;;;;;14.76;58.90;99031.88;225440;1281;22532;-68
2023/05/31 21:42:12;;;;;;;8.60;4.60;;;;;;;14.59;59.75;99028.20;225336;1280;23245;-68
2023/05/31 21:47:14;;;;;;;8.50;4.60;;;;;;;14.44;60.18;99029.36;225498;1283;22542;-69
2023/05/31 21:52:31;;;;;;;8.40;4.30;;;;;;;14.32;60.35;99034.70;225414;1281;22547;-69
2023/05/31 21:57:34;;;;;;;17.10;5.30;;;;;;;14.19;60.88;99035.94;225389;1283;22543;-69
2023/05/31 22:02:42;;;;;;;10.70;5.60;;;;;;;14.05;61.11;99038.98;225408;1283;22554;-69
2023/05/31 22:07:47;;;;;;;12.00;6.40;;;;;;;13.90;61.30;99043.64;225262;1283;22549;-69
2023/05/31 22:12:51;;;;;;;9.80;5.90;;;;;;;13.78;61.68;99045.66;225290;1283;24523;-69
2023/05/31 22:17:58;;;;;;;11.90;5.90;;;;;;;13.67;62.03;99042.41;225505;1282;22546;-70
2023/05/31 22:23:06;;;;;;;13.00;6.20;;;;;;;13.56;62.31;99037.08;225475;1283;22543;-69
2023/05/31 22:28:11;;;;;;;9.80;5.90;;;;;;;13.45;62.61;99037.55;225366;1283;22545;-68
2023/05/31 22:33:14;;;;;;;10.10;5.80;;;;;;;13.36;63.13;99036.38;225321;1283;22549;-68
2023/05/31 22:38:23;;;;;;;12.90;6.40;;;;;;;13.28;63.59;99033.48;225285;1280;198771;-69
2023/05/31 22:43:26;;;;;;;9.60;6.10;;;;;;;13.20;64.05;99027.14;225336;1283;22543;-68
2023/05/31 22:48:29;;;;;;;12.50;6.60;;;;;;;13.12;64.49;99026.13;225378;1283;22558;-69
2023/05/31 22:53:34;;;;;;;11.30;6.20;;;;;;;13.06;64.99;99027.30;225393;1283;22538;-68
2023/05/31 22:58:39;;;;;;;10.30;5.80;;;;;;;12.99;65.21;99025.35;225305;1283;22549;-69
2023/05/31 23:03:44;;;;;;;14.20;6.50;;;;;;;12.92;65.70;99024.29;225408;1282;22543;-70
2023/05/31 23:08:48;;;;;;;13.90;6.40;;;;;;;12.87;66.05;99022.61;225396;1281;22584;-69
2023/05/31 23:14:02;;;;;;;9.60;6.40;;;;;;;12.82;66.38;99019.59;225409;1283;23628;-68
2023/05/31 23:19:13;;;;;;;10.00;5.90;;;;;;;12.76;66.70;99012.02;225432;1283;22551;-69
2023/05/31 23:24:16;;;;;;;8.10;5.90;;;;;;;12.70;66.98;99008.96;225422;1281;22542;-70
2023/05/31 23:29:18;;;;;;;12.80;6.40;;;;;;;12.63;67.41;99006.43;225243;1283;22581;-68
2023/05/31 23:34:20;;;;;;;9.70;6.30;;;;;;;12.57;67.70;99003.97;225401;1281;24194;-68
2023/05/31 23:39:23;;;;;;;9.30;5.20;;;;;;;12.52;68.19;99000.33;225468;1283;24298;-68
2023/05/31 23:44:27;;;;;;;13.00;6.90;;;;;;;12.40;68.48;98997.70;225491;1279;22537;-69